KCOF

Patrick Air Force Base

Airport
ICAO code
KCOF
Summary
ICAO Region
NAM
ICAO Territory
Location

Cocoa Beach, Florida,

Elevation
8 ft
Coordinates
28° 14' 6" N , 80° 36' 14" W
KCC
Metar
KCOF 221755Z AUTO 14014KT 10SM FEW130 SCT150 BKN170 BKN190 31/24 A3006 RMK AO2 LTG DSNT S SLP184 60016 T03070243 10309 20257 55009 $

Description

Patrick Air Force Base is a United States Air Force installation located between Satellite Beach and Cocoa Beach, in Brevard County, Florida.

Climatology

Humid “subtropical” climate (Köppen climate classification Cfa) - characterized by hot, humid summers and cool winters. Significant amounts of precipitation occur in all seasons in most areas.

Airport map

Aerial View

SKYbrary Partners:

Safety knowledge contributed by: